sensor_id;sensor_type;location;lat;lon;timestamp;temperature;humidity
17827;DHT22;9038;48.208;16.308;2024-01-25T00:00:11;11.70;99.90
17827;DHT22;9038;48.208;16.308;2024-01-25T00:02:13;11.70;99.90
17827;DHT22;9038;48.208;16.308;2024-01-25T00:04:15;11.70;99.90
17827;DHT22;9038;48.208;16.308;2024-01-25T00:06:17;11.70;99.90
17827;DHT22;9038;48.208;16.308;2024-01-25T00:08:19;11.70;99.90
17827;DHT22;9038;48.208;16.308;2024-01-25T00:10:21;11.70;99.90
17827;DHT22;9038;48.208;16.308;2024-01-25T00:12:23;11.70;99.90
17827;DHT22;9038;48.208;16.308;2024-01-25T00:14:26;11.70;99.90
17827;DHT22;9038;48.208;16.308;2024-01-25T00:16:28;11.60;99.90
17827;DHT22;9038;48.208;16.308;2024-01-25T00:18:30;11.60;99.90
17827;DHT22;9038;48.208;16.308;2024-01-25T00:20:32;11.60;99.90
17827;DHT22;9038;48.208;16.308;2024-01-25T00:22:34;11.60;99.90
17827;DHT22;9038;48.208;16.308;2024-01-25T00:24:35;11.60;99.90
17827;DHT22;9038;48.208;16.308;2024-01-25T00:26:38;11.60;99.90
17827;DHT22;9038;48.208;16.308;2024-01-25T00:28:40;11.60;99.90
17827;DHT22;9038;48.208;16.308;2024-01-25T00:30:43;11.60;99.90
17827;DHT22;9038;48.208;16.308;2024-01-25T00:32:45;11.60;99.90
17827;DHT22;9038;48.208;16.308;2024-01-25T00:34:48;11.60;99.90
17827;DHT22;9038;48.208;16.308;2024-01-25T00:36:50;11.50;99.90
17827;DHT22;9038;48.208;16.308;2024-01-25T00:38:52;11.50;99.90
17827;DHT22;9038;48.208;16.308;2024-01-25T00:40:55;11.60;99.90
17827;DHT22;9038;48.208;16.308;2024-01-25T00:42:57;11.60;99.90
17827;DHT22;9038;48.208;16.308;2024-01-25T00:45:00;11.60;99.90
17827;DHT22;9038;48.208;16.308;2024-01-25T00:47:03;11.50;99.90
17827;DHT22;9038;48.208;16.308;2024-01-25T00:49:05;11.50;99.90
17827;DHT22;9038;48.208;16.308;2024-01-25T00:51:08;11.50;99.90
17827;DHT22;9038;48.208;16.308;2024-01-25T00:53:10;11.50;99.90
17827;DHT22;9038;48.208;16.308;2024-01-25T00:55:13;11.50;99.90
17827;DHT22;9038;48.208;16.308;2024-01-25T00:57:16;11.50;99.90
17827;DHT22;9038;48.208;16.308;2024-01-25T00:59:18;11.50;99.90
17827;DHT22;9038;48.208;16.308;2024-01-25T01:01:21;11.50;99.90
17827;DHT22;9038;48.208;16.308;2024-01-25T01:03:26;11.50;99.90
17827;DHT22;9038;48.208;16.308;2024-01-25T01:05:28;11.50;99.90
17827;DHT22;9038;48.208;16.308;2024-01-25T01:07:31;11.50;99.90
17827;DHT22;9038;48.208;16.308;2024-01-25T01:09:32;11.50;99.90
17827;DHT22;9038;48.208;16.308;2024-01-25T01:11:35;11.40;99.90
17827;DHT22;9038;48.208;16.308;2024-01-25T01:13:37;11.50;99.90
17827;DHT22;9038;48.208;16.308;2024-01-25T01:15:39;11.40;99.90
17827;DHT22;9038;48.208;16.308;2024-01-25T01:17:41;11.50;99.90
17827;DHT22;9038;48.208;16.308;2024-01-25T01:19:44;11.50;99.90
17827;DHT22;9038;48.208;16.308;2024-01-25T01:21:46;11.40;99.90
17827;DHT22;9038;48.208;16.308;2024-01-25T01:23:48;11.40;99.90
17827;DHT22;9038;48.208;16.308;2024-01-25T01:25:50;11.30;99.90
17827;DHT22;9038;48.208;16.308;2024-01-25T01:27:52;11.40;99.90
17827;DHT22;9038;48.208;16.308;2024-01-25T01:29:53;11.30;99.90
17827;DHT22;9038;48.208;16.308;2024-01-25T01:31:54;11.40;99.90
17827;DHT22;9038;48.208;16.308;2024-01-25T01:33:56;11.30;99.90
17827;DHT22;9038;48.208;16.308;2024-01-25T01:36:00;11.30;99.90
17827;DHT22;9038;48.208;16.308;2024-01-25T01:38:02;11.30;99.90
17827;DHT22;9038;48.208;16.308;2024-01-25T01:40:05;11.30;99.90
17827;DHT22;9038;48.208;16.308;2024-01-25T01:42:07;11.30;99.90
17827;DHT22;9038;48.208;16.308;2024-01-25T01:44:08;11.30;99.90
17827;DHT22;9038;48.208;16.308;2024-01-25T01:46:12;11.30;99.90
17827;DHT22;9038;48.208;16.308;2024-01-25T01:48:14;11.30;99.90
17827;DHT22;9038;48.208;16.308;2024-01-25T01:50:16;11.30;99.90
17827;DHT22;9038;48.208;16.308;2024-01-25T01:52:19;11.20;99.90
17827;DHT22;9038;48.208;16.308;2024-01-25T01:54:21;11.30;99.90
17827;DHT22;9038;48.208;16.308;2024-01-25T01:56:24;11.30;99.90
17827;DHT22;9038;48.208;16.308;2024-01-25T01:58:28;11.20;99.90
17827;DHT22;9038;48.208;16.308;2024-01-25T02:00:32;11.20;99.90
17827;DHT22;9038;48.208;16.308;2024-01-25T02:02:35;11.20;99.90
17827;DHT22;9038;48.208;16.308;2024-01-25T02:04:36;11.20;99.90
17827;DHT22;9038;48.208;16.308;2024-01-25T02:06:38;11.20;99.90
17827;DHT22;9038;48.208;16.308;2024-01-25T02:08:40;11.20;99.90
17827;DHT22;9038;48.208;16.308;2024-01-25T02:10:42;11.10;99.90
17827;DHT22;9038;48.208;16.308;2024-01-25T02:12:44;11.20;99.90
17827;DHT22;9038;48.208;16.308;2024-01-25T02:14:46;11.20;99.90
17827;DHT22;9038;48.208;16.308;2024-01-25T02:16:47;11.20;99.90
17827;DHT22;9038;48.208;16.308;2024-01-25T02:18:49;11.20;99.90
17827;DHT22;9038;48.208;16.308;2024-01-25T02:20:51;11.20;99.90
17827;DHT22;9038;48.208;16.308;2024-01-25T02:22:54;11.20;99.90
17827;DHT22;9038;48.208;16.308;2024-01-25T02:24:56;11.10;99.90
17827;DHT22;9038;48.208;16.308;2024-01-25T02:26:57;11.10;99.90
17827;DHT22;9038;48.208;16.308;2024-01-25T02:28:58;11.20;99.90
17827;DHT22;9038;48.208;16.308;2024-01-25T02:31:01;11.10;99.90
17827;DHT22;9038;48.208;16.308;2024-01-25T02:33:03;11.10;99.90
17827;DHT22;9038;48.208;16.308;2024-01-25T02:35:06;11.10;99.90
17827;DHT22;9038;48.208;16.308;2024-01-25T02:37:08;11.20;99.90
17827;DHT22;9038;48.208;16.308;2024-01-25T02:39:10;11.20;99.90
17827;DHT22;9038;48.208;16.308;2024-01-25T02:41:13;11.10;99.90
17827;DHT22;9038;48.208;16.308;2024-01-25T02:43:14;11.10;99.90
17827;DHT22;9038;48.208;16.308;2024-01-25T02:45:16;11.10;99.90
17827;DHT22;9038;48.208;16.308;2024-01-25T02:47:18;11.10;99.90
17827;DHT22;9038;48.208;16.308;2024-01-25T02:49:20;11.10;99.90
17827;DHT22;9038;48.208;16.308;2024-01-25T02:51:23;11.00;99.90
17827;DHT22;9038;48.208;16.308;2024-01-25T02:53:25;11.00;99.90
17827;DHT22;9038;48.208;16.308;2024-01-25T02:55:29;11.00;99.90
17827;DHT22;9038;48.208;16.308;2024-01-25T02:57:30;11.00;99.90
17827;DHT22;9038;48.208;16.308;2024-01-25T02:59:32;11.00;99.90
17827;DHT22;9038;48.208;16.308;2024-01-25T03:01:38;11.00;99.90
17827;DHT22;9038;48.208;16.308;2024-01-25T03:03:40;11.10;99.90
17827;DHT22;9038;48.208;16.308;2024-01-25T03:05:42;11.00;99.90
17827;DHT22;9038;48.208;16.308;2024-01-25T03:07:43;11.00;99.90
17827;DHT22;9038;48.208;16.308;2024-01-25T03:09:46;11.00;99.90
17827;DHT22;9038;48.208;16.308;2024-01-25T03:11:48;10.90;99.90
17827;DHT22;9038;48.208;16.308;2024-01-25T03:13:50;10.90;99.90
17827;DHT22;9038;48.208;16.308;2024-01-25T03:15:52;10.90;99.90
17827;DHT22;9038;48.208;16.308;2024-01-25T03:17:53;10.90;99.90
17827;DHT22;9038;48.208;16.308;2024-01-25T03:19:55;10.90;99.90
17827;DHT22;9038;48.208;16.308;2024-01-25T03:21:57;10.90;99.90
17827;DHT22;9038;48.208;16.308;2024-01-25T03:24:01;10.90;99.90
17827;DHT22;9038;48.208;16.308;2024-01-25T03:26:03;10.90;99.90
17827;DHT22;9038;48.208;16.308;2024-01-25T03:28:06;10.90;99.90
17827;DHT22;9038;48.208;16.308;2024-01-25T03:30:10;10.90;99.90
17827;DHT22;9038;48.208;16.308;2024-01-25T03:32:12;10.90;99.90
17827;DHT22;9038;48.208;16.308;2024-01-25T03:34:14;10.90;99.90
17827;DHT22;9038;48.208;16.308;2024-01-25T03:36:16;10.90;99.90
17827;DHT22;9038;48.208;16.308;2024-01-25T03:38:17;10.90;99.90
17827;DHT22;9038;48.208;16.308;2024-01-25T03:40:19;11.00;99.90
17827;DHT22;9038;48.208;16.308;2024-01-25T03:42:21;11.00;99.90
17827;DHT22;9038;48.208;16.308;2024-01-25T03:44:24;10.90;99.90
17827;DHT22;9038;48.208;16.308;2024-01-25T03:46:26;10.90;99.90
17827;DHT22;9038;48.208;16.308;2024-01-25T03:48:28;10.90;99.90
17827;DHT22;9038;48.208;16.308;2024-01-25T03:50:30;10.90;99.90
17827;DHT22;9038;48.208;16.308;2024-01-25T03:52:31;10.90;99.90
17827;DHT22;9038;48.208;16.308;2024-01-25T03:54:33;10.90;99.90
17827;DHT22;9038;48.208;16.308;2024-01-25T03:56:35;10.80;99.90
17827;DHT22;9038;48.208;16.308;2024-01-25T03:58:37;10.90;99.90
17827;DHT22;9038;48.208;16.308;2024-01-25T04:00:40;10.90;99.90
17827;DHT22;9038;48.208;16.308;2024-01-25T04:02:42;10.90;99.90
17827;DHT22;9038;48.208;16.308;2024-01-25T04:04:44;10.80;99.90
17827;DHT22;9038;48.208;16.308;2024-01-25T04:06:46;10.90;99.90
17827;DHT22;9038;48.208;16.308;2024-01-25T04:08:47;10.80;99.90
17827;DHT22;9038;48.208;16.308;2024-01-25T04:10:49;10.80;99.90
17827;DHT22;9038;48.208;16.308;2024-01-25T04:12:51;10.80;99.90
17827;DHT22;9038;48.208;16.308;2024-01-25T04:14:53;10.80;99.90
17827;DHT22;9038;48.208;16.308;2024-01-25T04:16:56;10.80;99.90
17827;DHT22;9038;48.208;16.308;2024-01-25T04:18:58;10.80;99.90
17827;DHT22;9038;48.208;16.308;2024-01-25T04:21:00;10.70;99.90
17827;DHT22;9038;48.208;16.308;2024-01-25T04:23:02;10.80;99.90
17827;DHT22;9038;48.208;16.308;2024-01-25T04:25:03;10.80;99.90
17827;DHT22;9038;48.208;16.308;2024-01-25T04:27:05;10.80;99.90
17827;DHT22;9038;48.208;16.308;2024-01-25T04:29:06;10.70;99.90
17827;DHT22;9038;48.208;16.308;2024-01-25T04:31:08;10.70;99.90
17827;DHT22;9038;48.208;16.308;2024-01-25T04:33:11;10.80;99.90
17827;DHT22;9038;48.208;16.308;2024-01-25T04:35:14;10.70;99.90
17827;DHT22;9038;48.208;16.308;2024-01-25T04:37:15;10.80;99.90
17827;DHT22;9038;48.208;16.308;2024-01-25T04:39:17;10.80;99.90
17827;DHT22;9038;48.208;16.308;2024-01-25T04:41:19;10.80;99.90
17827;DHT22;9038;48.208;16.308;2024-01-25T04:43:20;10.70;99.90
17827;DHT22;9038;48.208;16.308;2024-01-25T04:45:22;10.70;99.90
17827;DHT22;9038;48.208;16.308;2024-01-25T04:47:24;10.70;99.90
17827;DHT22;9038;48.208;16.308;2024-01-25T04:49:27;10.70;99.90
17827;DHT22;9038;48.208;16.308;2024-01-25T04:51:29;10.70;99.90
17827;DHT22;9038;48.208;16.308;2024-01-25T04:53:31;10.70;99.90
17827;DHT22;9038;48.208;16.308;2024-01-25T04:55:33;10.70;99.90
17827;DHT22;9038;48.208;16.308;2024-01-25T04:57:35;10.70;99.90
17827;DHT22;9038;48.208;16.308;2024-01-25T04:59:37;10.70;99.90
17827;DHT22;9038;48.208;16.308;2024-01-25T05:01:39;10.70;99.90
17827;DHT22;9038;48.208;16.308;2024-01-25T05:03:40;10.70;99.90
17827;DHT22;9038;48.208;16.308;2024-01-25T05:05:44;10.70;99.90
17827;DHT22;9038;48.208;16.308;2024-01-25T05:07:45;10.70;99.90
17827;DHT22;9038;48.208;16.308;2024-01-25T05:09:47;10.60;99.90
17827;DHT22;9038;48.208;16.308;2024-01-25T05:11:49;10.60;99.90
17827;DHT22;9038;48.208;16.308;2024-01-25T05:13:51;10.60;99.90
17827;DHT22;9038;48.208;16.308;2024-01-25T05:15:53;10.60;99.90
17827;DHT22;9038;48.208;16.308;2024-01-25T05:17:55;10.60;99.90
17827;DHT22;9038;48.208;16.308;2024-01-25T05:19:56;10.70;99.90
17827;DHT22;9038;48.208;16.308;2024-01-25T05:22:00;10.60;99.90
17827;DHT22;9038;48.208;16.308;2024-01-25T05:24:06;10.60;99.90
17827;DHT22;9038;48.208;16.308;2024-01-25T05:26:10;10.60;99.90
17827;DHT22;9038;48.208;16.308;2024-01-25T05:28:11;10.60;99.90
17827;DHT22;9038;48.208;16.308;2024-01-25T05:30:14;10.50;99.90
17827;DHT22;9038;48.208;16.308;2024-01-25T05:32:14;10.50;99.90
17827;DHT22;9038;48.208;16.308;2024-01-25T05:34:16;10.50;99.90
17827;DHT22;9038;48.208;16.308;2024-01-25T05:36:18;10.50;99.90
17827;DHT22;9038;48.208;16.308;2024-01-25T05:38:21;10.60;99.90
17827;DHT22;9038;48.208;16.308;2024-01-25T05:40:23;10.50;99.90
17827;DHT22;9038;48.208;16.308;2024-01-25T05:42:25;10.60;99.90
17827;DHT22;9038;48.208;16.308;2024-01-25T05:44:27;10.60;99.90
17827;DHT22;9038;48.208;16.308;2024-01-25T05:46:29;10.50;99.90
17827;DHT22;9038;48.208;16.308;2024-01-25T05:48:31;10.50;99.90
17827;DHT22;9038;48.208;16.308;2024-01-25T05:50:33;10.60;99.90
17827;DHT22;9038;48.208;16.308;2024-01-25T05:52:35;10.50;99.90
17827;DHT22;9038;48.208;16.308;2024-01-25T05:54:39;10.50;99.90
17827;DHT22;9038;48.208;16.308;2024-01-25T05:56:41;10.50;99.90
17827;DHT22;9038;48.208;16.308;2024-01-25T05:58:43;10.50;99.90
17827;DHT22;9038;48.208;16.308;2024-01-25T06:00:44;10.50;99.90
17827;DHT22;9038;48.208;16.308;2024-01-25T06:02:46;10.40;99.90
17827;DHT22;9038;48.208;16.308;2024-01-25T06:04:48;10.40;99.90
17827;DHT22;9038;48.208;16.308;2024-01-25T06:06:49;10.40;99.90
17827;DHT22;9038;48.208;16.308;2024-01-25T06:08:51;10.40;99.90
17827;DHT22;9038;48.208;16.308;2024-01-25T06:10:54;10.30;99.90
17827;DHT22;9038;48.208;16.308;2024-01-25T06:12:56;10.30;99.90
17827;DHT22;9038;48.208;16.308;2024-01-25T06:14:58;10.40;99.90
17827;DHT22;9038;48.208;16.308;2024-01-25T06:17:00;10.30;99.90
17827;DHT22;9038;48.208;16.308;2024-01-25T06:19:03;10.30;99.90
17827;DHT22;9038;48.208;16.308;2024-01-25T06:21:04;10.30;99.90
17827;DHT22;9038;48.208;16.308;2024-01-25T06:23:06;10.30;99.90
17827;DHT22;9038;48.208;16.308;2024-01-25T06:25:08;10.30;99.90
17827;DHT22;9038;48.208;16.308;2024-01-25T06:27:11;10.30;99.90
17827;DHT22;9038;48.208;16.308;2024-01-25T06:29:12;10.30;99.90
17827;DHT22;9038;48.208;16.308;2024-01-25T06:31:14;10.30;99.90
17827;DHT22;9038;48.208;16.308;2024-01-25T06:33:16;10.30;99.90
17827;DHT22;9038;48.208;16.308;2024-01-25T06:35:18;10.30;99.90
17827;DHT22;9038;48.208;16.308;2024-01-25T06:37:20;10.30;99.90
17827;DHT22;9038;48.208;16.308;2024-01-25T06:39:22;10.30;99.90
17827;DHT22;9038;48.208;16.308;2024-01-25T06:41:23;10.30;99.90
17827;DHT22;9038;48.208;16.308;2024-01-25T06:43:27;10.30;99.90
17827;DHT22;9038;48.208;16.308;2024-01-25T06:45:27;10.30;99.90
17827;DHT22;9038;48.208;16.308;2024-01-25T06:47:29;10.30;99.90
17827;DHT22;9038;48.208;16.308;2024-01-25T06:49:30;10.30;99.90
17827;DHT22;9038;48.208;16.308;2024-01-25T06:51:32;10.40;99.90
17827;DHT22;9038;48.208;16.308;2024-01-25T06:53:34;10.40;99.90
17827;DHT22;9038;48.208;16.308;2024-01-25T06:55:35;10.50;99.90
17827;DHT22;9038;48.208;16.308;2024-01-25T06:57:38;10.50;99.90
17827;DHT22;9038;48.208;16.308;2024-01-25T06:59:40;10.50;99.90
17827;DHT22;9038;48.208;16.308;2024-01-25T07:01:42;10.50;99.90
17827;DHT22;9038;48.208;16.308;2024-01-25T07:03:43;10.60;99.90
17827;DHT22;9038;48.208;16.308;2024-01-25T07:05:45;10.60;99.90
17827;DHT22;9038;48.208;16.308;2024-01-25T07:07:47;10.70;99.90
17827;DHT22;9038;48.208;16.308;2024-01-25T07:09:49;10.70;99.90
17827;DHT22;9038;48.208;16.308;2024-01-25T07:11:51;10.70;99.90
17827;DHT22;9038;48.208;16.308;2024-01-25T07:13:53;10.70;99.90
17827;DHT22;9038;48.208;16.308;2024-01-25T07:15:55;10.70;99.90
17827;DHT22;9038;48.208;16.308;2024-01-25T07:17:57;10.70;99.90
17827;DHT22;9038;48.208;16.308;2024-01-25T07:19:59;10.70;99.90
17827;DHT22;9038;48.208;16.308;2024-01-25T07:22:00;10.80;99.90
17827;DHT22;9038;48.208;16.308;2024-01-25T07:24:04;10.80;99.90
17827;DHT22;9038;48.208;16.308;2024-01-25T07:26:05;10.90;99.90
17827;DHT22;9038;48.208;16.308;2024-01-25T07:28:07;10.90;99.90
17827;DHT22;9038;48.208;16.308;2024-01-25T07:30:10;10.80;99.90
17827;DHT22;9038;48.208;16.308;2024-01-25T07:32:14;10.80;99.90
17827;DHT22;9038;48.208;16.308;2024-01-25T07:34:15;10.80;99.90
17827;DHT22;9038;48.208;16.308;2024-01-25T07:36:17;10.80;99.90
17827;DHT22;9038;48.208;16.308;2024-01-25T07:38:19;10.70;99.90
17827;DHT22;9038;48.208;16.308;2024-01-25T07:40:21;10.70;99.90
17827;DHT22;9038;48.208;16.308;2024-01-25T07:42:22;10.70;99.90
17827;DHT22;9038;48.208;16.308;2024-01-25T07:44:23;10.60;99.90
17827;DHT22;9038;48.208;16.308;2024-01-25T07:46:25;10.60;99.90
17827;DHT22;9038;48.208;16.308;2024-01-25T07:48:28;10.50;99.90
17827;DHT22;9038;48.208;16.308;2024-01-25T07:50:31;10.50;99.90
17827;DHT22;9038;48.208;16.308;2024-01-25T07:52:33;10.50;99.90
17827;DHT22;9038;48.208;16.308;2024-01-25T07:54:35;10.50;99.90
17827;DHT22;9038;48.208;16.308;2024-01-25T07:56:36;10.50;99.90
17827;DHT22;9038;48.208;16.308;2024-01-25T07:58:40;10.40;99.90
17827;DHT22;9038;48.208;16.308;2024-01-25T08:00:42;10.50;99.90
17827;DHT22;9038;48.208;16.308;2024-01-25T08:02:44;10.50;99.90
17827;DHT22;9038;48.208;16.308;2024-01-25T08:04:47;10.50;99.90
17827;DHT22;9038;48.208;16.308;2024-01-25T08:06:49;10.50;99.90
17827;DHT22;9038;48.208;16.308;2024-01-25T08:08:50;10.60;99.90
17827;DHT22;9038;48.208;16.308;2024-01-25T08:10:52;10.70;99.90
17827;DHT22;9038;48.208;16.308;2024-01-25T08:12:54;10.70;99.90
17827;DHT22;9038;48.208;16.308;2024-01-25T08:14:56;10.70;99.90
17827;DHT22;9038;48.208;16.308;2024-01-25T08:16:58;10.80;99.90
17827;DHT22;9038;48.208;16.308;2024-01-25T08:19:00;10.80;99.90
17827;DHT22;9038;48.208;16.308;2024-01-25T08:21:04;10.90;99.90
17827;DHT22;9038;48.208;16.308;2024-01-25T08:23:05;10.90;99.90
17827;DHT22;9038;48.208;16.308;2024-01-25T08:25:09;11.00;99.90
17827;DHT22;9038;48.208;16.308;2024-01-25T08:27:12;11.00;99.90
17827;DHT22;9038;48.208;16.308;2024-01-25T08:29:14;11.10;99.90
17827;DHT22;9038;48.208;16.308;2024-01-25T08:31:16;11.20;99.90
17827;DHT22;9038;48.208;16.308;2024-01-25T08:33:18;11.30;99.90
17827;DHT22;9038;48.208;16.308;2024-01-25T08:35:20;11.30;99.90
17827;DHT22;9038;48.208;16.308;2024-01-25T08:37:22;11.30;99.90
17827;DHT22;9038;48.208;16.308;2024-01-25T08:39:24;11.40;99.90
17827;DHT22;9038;48.208;16.308;2024-01-25T08:41:27;11.40;99.90
17827;DHT22;9038;48.208;16.308;2024-01-25T08:43:29;11.40;99.90
17827;DHT22;9038;48.208;16.308;2024-01-25T08:45:31;11.40;99.90
17827;DHT22;9038;48.208;16.308;2024-01-25T08:47:33;11.40;99.90
17827;DHT22;9038;48.208;16.308;2024-01-25T08:49:38;11.50;99.90
17827;DHT22;9038;48.208;16.308;2024-01-25T08:51:40;11.40;99.90
17827;DHT22;9038;48.208;16.308;2024-01-25T08:53:43;11.40;99.90
17827;DHT22;9038;48.208;16.308;2024-01-25T08:55:45;11.40;99.90
17827;DHT22;9038;48.208;16.308;2024-01-25T08:57:48;11.40;99.90
17827;DHT22;9038;48.208;16.308;2024-01-25T08:59:49;11.30;99.90
17827;DHT22;9038;48.208;16.308;2024-01-25T09:01:50;11.40;99.90
17827;DHT22;9038;48.208;16.308;2024-01-25T09:03:52;11.40;99.90
17827;DHT22;9038;48.208;16.308;2024-01-25T09:05:54;11.50;99.90
17827;DHT22;9038;48.208;16.308;2024-01-25T09:07:56;11.50;99.90
17827;DHT22;9038;48.208;16.308;2024-01-25T09:09:59;11.50;99.90
17827;DHT22;9038;48.208;16.308;2024-01-25T09:12:01;11.50;99.90
17827;DHT22;9038;48.208;16.308;2024-01-25T09:14:04;11.50;99.90
17827;DHT22;9038;48.208;16.308;2024-01-25T09:16:06;11.50;99.90
17827;DHT22;9038;48.208;16.308;2024-01-25T09:18:08;11.60;99.90
17827;DHT22;9038;48.208;16.308;2024-01-25T09:20:10;11.80;99.90
17827;DHT22;9038;48.208;16.308;2024-01-25T09:22:12;11.80;99.90
17827;DHT22;9038;48.208;16.308;2024-01-25T09:24:16;11.90;99.90
17827;DHT22;9038;48.208;16.308;2024-01-25T09:26:20;11.90;99.90
17827;DHT22;9038;48.208;16.308;2024-01-25T09:28:22;11.90;99.90
17827;DHT22;9038;48.208;16.308;2024-01-25T09:30:23;12.00;99.90
17827;DHT22;9038;48.208;16.308;2024-01-25T09:32:24;12.10;99.90
17827;DHT22;9038;48.208;16.308;2024-01-25T09:34:26;12.20;99.90
17827;DHT22;9038;48.208;16.308;2024-01-25T09:36:28;12.00;99.90
17827;DHT22;9038;48.208;16.308;2024-01-25T09:38:30;12.10;99.90
17827;DHT22;9038;48.208;16.308;2024-01-25T09:40:32;12.10;99.90
17827;DHT22;9038;48.208;16.308;2024-01-25T09:42:38;12.50;99.90
17827;DHT22;9038;48.208;16.308;2024-01-25T09:44:40;12.40;99.90
17827;DHT22;9038;48.208;16.308;2024-01-25T09:46:43;12.50;99.90
17827;DHT22;9038;48.208;16.308;2024-01-25T09:48:47;12.60;99.90
17827;DHT22;9038;48.208;16.308;2024-01-25T09:50:49;12.70;99.90
17827;DHT22;9038;48.208;16.308;2024-01-25T09:52:54;12.70;99.90
17827;DHT22;9038;48.208;16.308;2024-01-25T09:54:58;12.70;99.90
17827;DHT22;9038;48.208;16.308;2024-01-25T09:57:01;12.70;99.90
17827;DHT22;9038;48.208;16.308;2024-01-25T09:59:07;12.60;99.90
17827;DHT22;9038;48.208;16.308;2024-01-25T10:01:10;12.80;99.90
17827;DHT22;9038;48.208;16.308;2024-01-25T10:03:11;12.90;99.90
17827;DHT22;9038;48.208;16.308;2024-01-25T10:05:13;13.00;99.90
17827;DHT22;9038;48.208;16.308;2024-01-25T10:07:15;13.10;99.90
17827;DHT22;9038;48.208;16.308;2024-01-25T10:09:17;13.10;99.90
17827;DHT22;9038;48.208;16.308;2024-01-25T10:11:18;13.10;99.90
17827;DHT22;9038;48.208;16.308;2024-01-25T10:13:20;13.00;99.90
17827;DHT22;9038;48.208;16.308;2024-01-25T10:15:24;13.00;99.90
17827;DHT22;9038;48.208;16.308;2024-01-25T10:17:25;13.00;99.90
17827;DHT22;9038;48.208;16.308;2024-01-25T10:19:27;12.90;99.90
17827;DHT22;9038;48.208;16.308;2024-01-25T10:21:29;12.80;99.90
17827;DHT22;9038;48.208;16.308;2024-01-25T10:23:31;12.70;99.90
17827;DHT22;9038;48.208;16.308;2024-01-25T10:25:34;12.70;99.90
17827;DHT22;9038;48.208;16.308;2024-01-25T10:27:36;12.70;99.90
17827;DHT22;9038;48.208;16.308;2024-01-25T10:29:38;12.70;99.90
17827;DHT22;9038;48.208;16.308;2024-01-25T10:31:41;12.70;99.90
17827;DHT22;9038;48.208;16.308;2024-01-25T10:33:45;12.80;99.90
17827;DHT22;9038;48.208;16.308;2024-01-25T10:35:47;12.70;99.90
17827;DHT22;9038;48.208;16.308;2024-01-25T10:37:51;12.60;99.90
17827;DHT22;9038;48.208;16.308;2024-01-25T10:39:55;12.60;99.90
17827;DHT22;9038;48.208;16.308;2024-01-25T10:41:58;12.80;99.90
17827;DHT22;9038;48.208;16.308;2024-01-25T10:44:01;12.90;99.90
17827;DHT22;9038;48.208;16.308;2024-01-25T10:46:04;13.00;99.90
17827;DHT22;9038;48.208;16.308;2024-01-25T10:48:08;13.10;99.90
17827;DHT22;9038;48.208;16.308;2024-01-25T10:50:12;13.20;99.90
17827;DHT22;9038;48.208;16.308;2024-01-25T10:52:15;13.20;99.90
17827;DHT22;9038;48.208;16.308;2024-01-25T10:54:17;13.30;99.90
17827;DHT22;9038;48.208;16.308;2024-01-25T10:56:19;13.20;99.90
17827;DHT22;9038;48.208;16.308;2024-01-25T10:58:21;13.10;99.90
17827;DHT22;9038;48.208;16.308;2024-01-25T11:00:23;13.10;99.90
17827;DHT22;9038;48.208;16.308;2024-01-25T11:02:25;13.20;99.90
17827;DHT22;9038;48.208;16.308;2024-01-25T11:04:29;13.10;99.90
17827;DHT22;9038;48.208;16.308;2024-01-25T11:06:31;13.10;99.90
17827;DHT22;9038;48.208;16.308;2024-01-25T11:08:32;13.00;99.90
17827;DHT22;9038;48.208;16.308;2024-01-25T11:10:35;13.00;99.90
17827;DHT22;9038;48.208;16.308;2024-01-25T11:12:48;13.20;99.90
17827;DHT22;9038;48.208;16.308;2024-01-25T11:14:54;13.10;99.90
17827;DHT22;9038;48.208;16.308;2024-01-25T11:16:55;13.10;99.90
17827;DHT22;9038;48.208;16.308;2024-01-25T11:18:58;13.20;99.90
17827;DHT22;9038;48.208;16.308;2024-01-25T11:21:07;13.10;99.90
17827;DHT22;9038;48.208;16.308;2024-01-25T11:23:07;13.10;99.90
17827;DHT22;9038;48.208;16.308;2024-01-25T11:25:13;13.20;99.90
17827;DHT22;9038;48.208;16.308;2024-01-25T11:27:17;13.40;99.90
17827;DHT22;9038;48.208;16.308;2024-01-25T11:29:20;13.40;99.90
17827;DHT22;9038;48.208;16.308;2024-01-25T11:31:24;13.40;99.90
17827;DHT22;9038;48.208;16.308;2024-01-25T11:33:25;13.50;99.90
17827;DHT22;9038;48.208;16.308;2024-01-25T11:35:27;13.40;99.90
17827;DHT22;9038;48.208;16.308;2024-01-25T11:37:29;13.30;99.90
17827;DHT22;9038;48.208;16.308;2024-01-25T11:39:32;13.30;99.90
17827;DHT22;9038;48.208;16.308;2024-01-25T11:41:34;13.20;99.90
17827;DHT22;9038;48.208;16.308;2024-01-25T11:43:35;13.20;99.90
17827;DHT22;9038;48.208;16.308;2024-01-25T11:45:37;13.20;99.90
17827;DHT22;9038;48.208;16.308;2024-01-25T11:47:43;13.20;99.90
17827;DHT22;9038;48.208;16.308;2024-01-25T11:49:45;13.20;99.90
17827;DHT22;9038;48.208;16.308;2024-01-25T11:51:47;13.20;99.90
17827;DHT22;9038;48.208;16.308;2024-01-25T11:53:50;13.20;99.90
17827;DHT22;9038;48.208;16.308;2024-01-25T11:55:53;13.20;99.90
17827;DHT22;9038;48.208;16.308;2024-01-25T11:57:57;13.30;99.90
17827;DHT22;9038;48.208;16.308;2024-01-25T11:59:59;13.30;99.90
17827;DHT22;9038;48.208;16.308;2024-01-25T12:02:01;13.40;99.90
17827;DHT22;9038;48.208;16.308;2024-01-25T12:04:04;13.40;99.90
17827;DHT22;9038;48.208;16.308;2024-01-25T12:06:08;13.50;99.90
17827;DHT22;9038;48.208;16.308;2024-01-25T12:08:13;13.40;99.90
17827;DHT22;9038;48.208;16.308;2024-01-25T12:10:17;13.50;99.90
17827;DHT22;9038;48.208;16.308;2024-01-25T12:12:19;13.40;99.90
17827;DHT22;9038;48.208;16.308;2024-01-25T12:14:20;13.30;99.90
17827;DHT22;9038;48.208;16.308;2024-01-25T12:16:22;13.30;99.90
17827;DHT22;9038;48.208;16.308;2024-01-25T12:18:24;13.20;99.90
17827;DHT22;9038;48.208;16.308;2024-01-25T12:20:28;13.20;99.90
17827;DHT22;9038;48.208;16.308;2024-01-25T12:22:30;13.20;99.90
17827;DHT22;9038;48.208;16.308;2024-01-25T12:24:32;13.20;99.90
17827;DHT22;9038;48.208;16.308;2024-01-25T12:26:36;13.10;99.90
17827;DHT22;9038;48.208;16.308;2024-01-25T12:28:38;13.00;99.90
17827;DHT22;9038;48.208;16.308;2024-01-25T12:30:40;13.00;99.90
17827;DHT22;9038;48.208;16.308;2024-01-25T12:32:42;12.90;99.90
17827;DHT22;9038;48.208;16.308;2024-01-25T12:34:53;12.90;99.90
17827;DHT22;9038;48.208;16.308;2024-01-25T12:36:55;12.90;99.90
17827;DHT22;9038;48.208;16.308;2024-01-25T12:38:57;12.70;99.90
17827;DHT22;9038;48.208;16.308;2024-01-25T12:40:59;12.60;99.90
17827;DHT22;9038;48.208;16.308;2024-01-25T12:43:03;12.70;99.90
17827;DHT22;9038;48.208;16.308;2024-01-25T12:45:05;12.70;99.90
17827;DHT22;9038;48.208;16.308;2024-01-25T12:47:06;12.70;99.90
17827;DHT22;9038;48.208;16.308;2024-01-25T12:49:08;12.60;99.90
17827;DHT22;9038;48.208;16.308;2024-01-25T12:51:10;12.60;99.90